sensor_id;sensor_type;location;lat;lon;timestamp;pressure;altitude;pressure_sealevel;temperature;humidity
72409;BME280;60402;48.082;11.628;2023-11-18T00:01:06;96040.88;;;3.80;100.00
72409;BME280;60402;48.082;11.628;2023-11-18T00:03:54;96024.50;;;3.79;100.00
72409;BME280;60402;48.082;11.628;2023-11-18T00:06:41;96048.63;;;3.98;100.00
72409;BME280;60402;48.082;11.628;2023-11-18T00:09:27;96051.03;;;3.99;100.00
72409;BME280;60402;48.082;11.628;2023-11-18T00:12:12;96041.72;;;3.84;100.00
72409;BME280;60402;48.082;11.628;2023-11-18T00:14:59;96046.47;;;3.80;100.00
72409;BME280;60402;48.082;11.628;2023-11-18T00:17:45;96006.75;;;3.57;100.00
72409;BME280;60402;48.082;11.628;2023-11-18T00:20:30;96033.56;;;3.65;100.00
72409;BME280;60402;48.082;11.628;2023-11-18T00:23:17;96057.25;;;3.78;100.00
72409;BME280;60402;48.082;11.628;2023-11-18T00:26:03;96041.25;;;3.72;100.00
72409;BME280;60402;48.082;11.628;2023-11-18T00:28:48;96048.06;;;3.78;100.00
72409;BME280;60402;48.082;11.628;2023-11-18T00:31:34;96021.25;;;3.70;100.00
72409;BME280;60402;48.082;11.628;2023-11-18T00:34:20;96047.78;;;3.94;100.00
72409;BME280;60402;48.082;11.628;2023-11-18T00:37:06;96050.16;;;3.88;100.00
72409;BME280;60402;48.082;11.628;2023-11-18T00:39:52;96057.28;;;3.85;100.00
72409;BME280;60402;48.082;11.628;2023-11-18T00:42:38;96048.53;;;3.87;100.00
72409;BME280;60402;48.082;11.628;2023-11-18T00:45:24;96042.44;;;3.74;100.00
72409;BME280;60402;48.082;11.628;2023-11-18T00:48:10;96072.94;;;3.94;100.00
72409;BME280;60402;48.082;11.628;2023-11-18T00:50:55;96058.53;;;3.88;100.00
72409;BME280;60402;48.082;11.628;2023-11-18T00:53:41;96053.69;;;3.85;100.00
72409;BME280;60402;48.082;11.628;2023-11-18T00:56:27;96048.00;;;3.71;100.00
72409;BME280;60402;48.082;11.628;2023-11-18T00:59:14;96070.13;;;3.90;100.00
72409;BME280;60402;48.082;11.628;2023-11-18T01:02:00;96046.03;;;3.75;100.00
72409;BME280;60402;48.082;11.628;2023-11-18T01:04:48;96057.69;;;3.84;100.00
72409;BME280;60402;48.082;11.628;2023-11-18T01:07:34;96043.19;;;3.68;100.00
72409;BME280;60402;48.082;11.628;2023-11-18T01:10:20;96043.97;;;3.65;100.00
72409;BME280;60402;48.082;11.628;2023-11-18T01:13:05;96061.66;;;3.79;100.00
72409;BME280;60402;48.082;11.628;2023-11-18T01:15:51;96042.00;;;3.69;100.00
72409;BME280;60402;48.082;11.628;2023-11-18T01:18:37;96069.59;;;3.74;100.00
72409;BME280;60402;48.082;11.628;2023-11-18T01:21:22;96042.72;;;3.58;100.00
72409;BME280;60402;48.082;11.628;2023-11-18T01:24:08;96063.59;;;3.75;100.00
72409;BME280;60402;48.082;11.628;2023-11-18T01:26:54;96072.06;;;3.82;100.00
72409;BME280;60402;48.082;11.628;2023-11-18T01:29:39;96084.00;;;3.79;100.00
72409;BME280;60402;48.082;11.628;2023-11-18T01:32:25;96077.31;;;3.88;100.00
72409;BME280;60402;48.082;11.628;2023-11-18T01:35:11;96085.72;;;3.91;100.00
72409;BME280;60402;48.082;11.628;2023-11-18T01:37:57;96075.75;;;3.94;100.00
72409;BME280;60402;48.082;11.628;2023-11-18T01:40:43;96086.91;;;3.90;100.00
72409;BME280;60402;48.082;11.628;2023-11-18T01:43:29;96066.38;;;3.72;100.00
72409;BME280;60402;48.082;11.628;2023-11-18T01:46:17;96085.72;;;3.91;100.00
72409;BME280;60402;48.082;11.628;2023-11-18T01:49:03;96073.94;;;3.71;100.00
72409;BME280;60402;48.082;11.628;2023-11-18T01:51:50;96074.78;;;3.75;100.00
72409;BME280;60402;48.082;11.628;2023-11-18T01:54:39;96099.72;;;3.91;100.00
72409;BME280;60402;48.082;11.628;2023-11-18T01:57:26;96084.50;;;3.89;100.00
72409;BME280;60402;48.082;11.628;2023-11-18T02:00:12;96093.75;;;3.96;100.00
72409;BME280;60402;48.082;11.628;2023-11-18T02:02:58;96093.69;;;3.89;100.00
72409;BME280;60402;48.082;11.628;2023-11-18T02:05:44;96076.97;;;4.00;100.00
72409;BME280;60402;48.082;11.628;2023-11-18T02:08:30;96081.81;;;4.03;100.00
72409;BME280;60402;48.082;11.628;2023-11-18T02:11:21;96115.34;;;3.99;100.00
72409;BME280;60402;48.082;11.628;2023-11-18T02:14:13;96103.75;;;3.97;100.00
72409;BME280;60402;48.082;11.628;2023-11-18T02:17:02;96113.34;;;4.00;100.00
72409;BME280;60402;48.082;11.628;2023-11-18T02:19:50;96097.72;;;3.92;100.00
72409;BME280;60402;48.082;11.628;2023-11-18T02:22:36;96098.44;;;3.85;100.00
72409;BME280;60402;48.082;11.628;2023-11-18T02:25:24;96111.34;;;3.97;100.00
72409;BME280;60402;48.082;11.628;2023-11-18T02:28:12;96110.94;;;3.98;100.00
72409;BME280;60402;48.082;11.628;2023-11-18T02:31:19;96102.16;;;4.00;100.00
72409;BME280;60402;48.082;11.628;2023-11-18T02:34:16;96088.06;;;3.85;100.00
72409;BME280;60402;48.082;11.628;2023-11-18T02:37:07;96108.94;;;3.99;100.00
72409;BME280;60402;48.082;11.628;2023-11-18T02:39:57;96101.34;;;3.96;100.00
72409;BME280;60402;48.082;11.628;2023-11-18T02:42:45;96100.09;;;3.93;100.00
72409;BME280;60402;48.082;11.628;2023-11-18T02:45:34;96105.75;;;3.97;100.00
72409;BME280;60402;48.082;11.628;2023-11-18T02:48:21;96111.03;;;4.09;100.00
72409;BME280;60402;48.082;11.628;2023-11-18T02:51:07;96114.28;;;4.15;100.00
72409;BME280;60402;48.082;11.628;2023-11-18T02:53:53;96102.19;;;4.03;100.00
72409;BME280;60402;48.082;11.628;2023-11-18T02:56:40;96106.53;;;3.97;100.00
72409;BME280;60402;48.082;11.628;2023-11-18T02:59:26;96076.06;;;3.85;100.00
72409;BME280;60402;48.082;11.628;2023-11-18T03:02:15;96096.09;;;3.91;100.00
72409;BME280;60402;48.082;11.628;2023-11-18T03:05:01;96084.00;;;3.79;100.00
72409;BME280;60402;48.082;11.628;2023-11-18T03:07:47;96092.47;;;3.87;100.00
72409;BME280;60402;48.082;11.628;2023-11-18T03:10:35;96122.25;;;4.13;100.00
72409;BME280;60402;48.082;11.628;2023-11-18T03:13:21;96089.31;;;3.92;100.00
72409;BME280;60402;48.082;11.628;2023-11-18T03:16:08;96112.53;;;3.99;100.00
72409;BME280;60402;48.082;11.628;2023-11-18T03:18:56;96100.19;;;4.00;100.00
72409;BME280;60402;48.082;11.628;2023-11-18T03:21:43;96106.91;;;3.92;100.00
72409;BME280;60402;48.082;11.628;2023-11-18T03:24:29;96108.94;;;3.99;100.00
72409;BME280;60402;48.082;11.628;2023-11-18T03:27:15;96117.25;;;3.88;100.00
72409;BME280;60402;48.082;11.628;2023-11-18T03:30:00;96110.06;;;3.87;100.00
72409;BME280;60402;48.082;11.628;2023-11-18T03:32:46;96102.09;;;3.93;100.00
72409;BME280;60402;48.082;11.628;2023-11-18T03:35:33;96142.97;;;4.08;100.00
72409;BME280;60402;48.082;11.628;2023-11-18T03:38:19;96124.50;;;3.96;100.00
72409;BME280;60402;48.082;11.628;2023-11-18T03:41:05;96127.22;;;3.89;100.00
72409;BME280;60402;48.082;11.628;2023-11-18T03:43:50;96126.03;;;3.90;100.00
72409;BME280;60402;48.082;11.628;2023-11-18T03:46:36;96121.22;;;3.87;100.00
72409;BME280;60402;48.082;11.628;2023-11-18T03:49:22;96124.47;;;3.93;100.00
72409;BME280;60402;48.082;11.628;2023-11-18T03:52:08;96140.00;;;3.90;100.00
72409;BME280;60402;48.082;11.628;2023-11-18T03:54:54;96154.59;;;4.10;100.00
72409;BME280;60402;48.082;11.628;2023-11-18T03:57:40;96151.81;;;4.10;100.00
72409;BME280;60402;48.082;11.628;2023-11-18T04:00:26;96139.25;;;3.93;100.00
72409;BME280;60402;48.082;11.628;2023-11-18T04:03:14;96164.50;;;4.00;100.00
72409;BME280;60402;48.082;11.628;2023-11-18T04:06:00;96140.75;;;3.83;100.00
72409;BME280;60402;48.082;11.628;2023-11-18T04:08:46;96147.25;;;3.95;100.00
72409;BME280;60402;48.082;11.628;2023-11-18T04:11:32;96129.19;;;3.81;100.00
72409;BME280;60402;48.082;11.628;2023-11-18T04:14:17;96164.91;;;4.02;100.00
72409;BME280;60402;48.082;11.628;2023-11-18T04:17:03;96138.41;;;3.89;100.00
72409;BME280;60402;48.082;11.628;2023-11-18T04:19:49;96123.59;;;3.81;100.00
72409;BME280;60402;48.082;11.628;2023-11-18T04:22:38;96127.53;;;3.77;100.00
72409;BME280;60402;48.082;11.628;2023-11-18T04:25:23;96156.06;;;3.97;100.00
72409;BME280;60402;48.082;11.628;2023-11-18T04:28:10;96152.09;;;3.98;100.00
72409;BME280;60402;48.082;11.628;2023-11-18T04:30:56;96158.06;;;3.96;100.00
72409;BME280;60402;48.082;11.628;2023-11-18T04:33:42;96132.72;;;3.78;100.00
72409;BME280;60402;48.082;11.628;2023-11-18T04:36:27;96143.59;;;3.87;100.00
72409;BME280;60402;48.082;11.628;2023-11-18T04:39:14;96138.38;;;3.85;100.00
72409;BME280;60402;48.082;11.628;2023-11-18T04:42:01;96137.56;;;3.81;100.00
72409;BME280;60402;48.082;11.628;2023-11-18T04:44:46;96068.88;;;3.43;100.00
72409;BME280;60402;48.082;11.628;2023-11-18T04:47:32;96129.59;;;3.83;100.00
72409;BME280;60402;48.082;11.628;2023-11-18T04:50:18;96145.69;;;3.97;100.00
72409;BME280;60402;48.082;11.628;2023-11-18T04:53:04;96144.84;;;3.93;100.00
72409;BME280;60402;48.082;11.628;2023-11-18T04:55:51;96154.84;;;3.94;100.00
72409;BME280;60402;48.082;11.628;2023-11-18T04:58:40;96160.56;;;4.05;100.00
72409;BME280;60402;48.082;11.628;2023-11-18T05:01:25;96158.91;;;4.00;100.00
72409;BME280;60402;48.082;11.628;2023-11-18T05:04:11;96128.75;;;3.79;100.00
72409;BME280;60402;48.082;11.628;2023-11-18T05:06:57;96157.63;;;3.94;100.00
72409;BME280;60402;48.082;11.628;2023-11-18T05:09:42;96140.81;;;3.87;100.00
72409;BME280;60402;48.082;11.628;2023-11-18T05:12:28;96160.91;;;4.03;100.00
72409;BME280;60402;48.082;11.628;2023-11-18T05:15:14;96154.06;;;3.97;100.00
72409;BME280;60402;48.082;11.628;2023-11-18T05:18:00;96146.03;;;3.92;100.00
72409;BME280;60402;48.082;11.628;2023-11-18T05:20:46;96158.81;;;3.93;100.00
72409;BME280;60402;48.082;11.628;2023-11-18T05:23:34;96146.41;;;3.87;100.00
72409;BME280;60402;48.082;11.628;2023-11-18T05:26:19;96146.44;;;3.94;100.00
72409;BME280;60402;48.082;11.628;2023-11-18T05:29:05;96140.06;;;3.94;100.00
72409;BME280;60402;48.082;11.628;2023-11-18T05:31:51;96149.31;;;4.01;100.00
72409;BME280;60402;48.082;11.628;2023-11-18T05:34:37;96140.22;;;4.12;100.00
72409;BME280;60402;48.082;11.628;2023-11-18T05:37:24;96149.38;;;4.08;100.00
72409;BME280;60402;48.082;11.628;2023-11-18T05:40:10;96143.34;;;4.03;100.00
72409;BME280;60402;48.082;11.628;2023-11-18T05:43:00;96155.75;;;4.05;100.00
72409;BME280;60402;48.082;11.628;2023-11-18T05:45:48;96129.72;;;3.98;100.00
72409;BME280;60402;48.082;11.628;2023-11-18T05:48:52;96153.38;;;4.07;100.00
72409;BME280;60402;48.082;11.628;2023-11-18T05:51:38;96132.03;;;3.89;100.00
72409;BME280;60402;48.082;11.628;2023-11-18T05:54:24;96160.91;;;4.03;100.00
72409;BME280;60402;48.082;11.628;2023-11-18T05:57:11;96156.13;;;4.00;100.00
72409;BME280;60402;48.082;11.628;2023-11-18T05:59:56;96152.09;;;3.98;100.00
72409;BME280;60402;48.082;11.628;2023-11-18T06:02:42;96143.16;;;3.85;100.00
72409;BME280;60402;48.082;11.628;2023-11-18T06:05:28;96138.41;;;3.89;100.00
72409;BME280;60402;48.082;11.628;2023-11-18T06:08:14;96153.72;;;4.02;100.00
72409;BME280;60402;48.082;11.628;2023-11-18T06:11:00;96158.88;;;3.97;100.00
72409;BME280;60402;48.082;11.628;2023-11-18T06:13:51;96178.50;;;4.04;100.00
72409;BME280;60402;48.082;11.628;2023-11-18T06:16:38;96181.28;;;4.00;100.00
72409;BME280;60402;48.082;11.628;2023-11-18T06:19:25;96195.28;;;4.04;100.00
72409;BME280;60402;48.082;11.628;2023-11-18T06:22:10;96198.56;;;4.09;100.00
72409;BME280;60402;48.082;11.628;2023-11-18T06:24:56;96187.28;;;4.02;100.00
72409;BME280;60402;48.082;11.628;2023-11-18T06:27:45;96114.91;;;3.53;100.00
72409;BME280;60402;48.082;11.628;2023-11-18T06:30:30;96174.34;;;3.87;100.00
72409;BME280;60402;48.082;11.628;2023-11-18T06:33:16;96184.78;;;3.94;100.00
72409;BME280;60402;48.082;11.628;2023-11-18T06:36:04;96195.25;;;4.00;100.00
72409;BME280;60402;48.082;11.628;2023-11-18T06:38:51;96168.31;;;3.85;100.00
72409;BME280;60402;48.082;11.628;2023-11-18T06:41:37;96180.00;;;3.94;100.00
72409;BME280;60402;48.082;11.628;2023-11-18T06:44:33;96180.03;;;3.98;100.00
72409;BME280;60402;48.082;11.628;2023-11-18T06:47:20;96154.81;;;3.91;100.00
72409;BME280;60402;48.082;11.628;2023-11-18T06:50:06;96170.06;;;3.97;100.00
72409;BME280;60402;48.082;11.628;2023-11-18T06:52:54;96169.75;;;4.09;100.00
72409;BME280;60402;48.082;11.628;2023-11-18T06:55:39;96161.63;;;3.93;100.00
72409;BME280;60402;48.082;11.628;2023-11-18T06:58:25;96164.84;;;3.95;100.00
72409;BME280;60402;48.082;11.628;2023-11-18T07:01:14;96188.25;;;4.21;100.00
72409;BME280;60402;48.082;11.628;2023-11-18T07:04:02;96175.34;;;4.05;100.00
72409;BME280;60402;48.082;11.628;2023-11-18T07:06:49;96198.69;;;4.24;100.00
72409;BME280;60402;48.082;11.628;2023-11-18T07:09:35;96183.78;;;4.13;100.00
72409;BME280;60402;48.082;11.628;2023-11-18T07:12:21;96170.16;;;4.07;100.00
72409;BME280;60402;48.082;11.628;2023-11-18T07:15:08;96187.84;;;4.22;100.00
72409;BME280;60402;48.082;11.628;2023-11-18T07:17:56;96124.78;;;3.84;100.00
72409;BME280;60402;48.082;11.628;2023-11-18T07:20:42;96175.50;;;4.27;100.00
72409;BME280;60402;48.082;11.628;2023-11-18T07:23:27;96200.41;;;4.39;100.00
72409;BME280;60402;48.082;11.628;2023-11-18T07:26:13;96179.09;;;4.24;100.00
72409;BME280;60402;48.082;11.628;2023-11-18T07:29:02;96182.03;;;4.38;100.00
72409;BME280;60402;48.082;11.628;2023-11-18T07:31:47;96163.84;;;4.14;100.00
72409;BME280;60402;48.082;11.628;2023-11-18T07:34:34;96201.28;;;4.50;100.00
72409;BME280;60402;48.082;11.628;2023-11-18T07:37:21;96212.09;;;4.48;100.00
72409;BME280;60402;48.082;11.628;2023-11-18T07:40:07;96189.22;;;4.39;100.00
72409;BME280;60402;48.082;11.628;2023-11-18T07:42:56;96207.81;;;4.65;100.00
72409;BME280;60402;48.082;11.628;2023-11-18T07:45:42;96218.53;;;4.56;100.00
72409;BME280;60402;48.082;11.628;2023-11-18T07:48:28;96194.91;;;4.50;100.00
72409;BME280;60402;48.082;11.628;2023-11-18T07:51:14;96222.69;;;4.76;100.00
72409;BME280;60402;48.082;11.628;2023-11-18T07:53:59;96188.06;;;4.44;100.00
72409;BME280;60402;48.082;11.628;2023-11-18T07:56:45;96217.94;;;4.80;100.00
72409;BME280;60402;48.082;11.628;2023-11-18T07:59:33;96190.72;;;4.81;100.00
72409;BME280;60402;48.082;11.628;2023-11-18T08:02:18;96195.47;;;4.73;100.00
72409;BME280;60402;48.082;11.628;2023-11-18T08:05:05;96202.44;;;4.97;100.00
72409;BME280;60402;48.082;11.628;2023-11-18T08:08:00;96215.72;;;5.11;100.00
72409;BME280;60402;48.082;11.628;2023-11-18T08:10:46;96215.78;;;5.18;100.00
72409;BME280;60402;48.082;11.628;2023-11-18T08:13:33;96200.13;;;5.13;100.00
72409;BME280;60402;48.082;11.628;2023-11-18T08:16:19;96213.78;;;5.26;100.00
72409;BME280;60402;48.082;11.628;2023-11-18T08:19:05;96192.59;;;5.25;100.00
72409;BME280;60402;48.082;11.628;2023-11-18T08:21:53;96200.72;;;5.51;100.00
72409;BME280;60402;48.082;11.628;2023-11-18T08:24:39;96191.91;;;5.53;100.00
72409;BME280;60402;48.082;11.628;2023-11-18T08:27:25;96200.38;;;5.67;100.00
72409;BME280;60402;48.082;11.628;2023-11-18T08:30:11;96201.97;;;5.64;100.00
72409;BME280;60402;48.082;11.628;2023-11-18T08:32:56;96218.00;;;5.68;100.00
72409;BME280;60402;48.082;11.628;2023-11-18T08:35:43;96210.72;;;5.52;100.00
72409;BME280;60402;48.082;11.628;2023-11-18T08:38:29;96229.97;;;5.57;100.00
72409;BME280;60402;48.082;11.628;2023-11-18T08:41:15;96211.13;;;5.47;100.00
72409;BME280;60402;48.082;11.628;2023-11-18T08:44:00;96224.78;;;5.59;100.00
72409;BME280;60402;48.082;11.628;2023-11-18T08:46:48;96218.81;;;5.68;100.00
72409;BME280;60402;48.082;11.628;2023-11-18T08:49:34;96237.69;;;5.75;100.00
72409;BME280;60402;48.082;11.628;2023-11-18T08:52:20;96194.75;;;5.56;100.00
72409;BME280;60402;48.082;11.628;2023-11-18T08:55:06;96218.81;;;5.68;100.00
72409;BME280;60402;48.082;11.628;2023-11-18T08:58:03;96209.59;;;5.71;100.00
72409;BME280;60402;48.082;11.628;2023-11-18T09:01:00;96224.84;;;5.77;100.00
72409;BME280;60402;48.082;11.628;2023-11-18T09:03:58;96208.00;;;5.70;100.00
72409;BME280;60402;48.082;11.628;2023-11-18T09:06:47;96202.00;;;5.72;100.00
72409;BME280;60402;48.082;11.628;2023-11-18T09:09:33;96209.25;;;5.83;100.00
72409;BME280;60402;48.082;11.628;2023-11-18T09:12:19;96219.38;;;6.09;100.00
72409;BME280;60402;48.082;11.628;2023-11-18T09:15:05;96214.94;;;6.05;100.00
72409;BME280;60402;48.082;11.628;2023-11-18T09:17:53;96213.78;;;6.17;100.00
72409;BME280;60402;48.082;11.628;2023-11-18T09:20:39;96196.94;;;6.27;100.00
72409;BME280;60402;48.082;11.628;2023-11-18T09:23:25;96189.34;;;6.38;100.00
72409;BME280;60402;48.082;11.628;2023-11-18T09:26:12;96190.94;;;6.36;100.00
72409;BME280;60402;48.082;11.628;2023-11-18T09:28:58;96202.19;;;6.47;100.00
72409;BME280;60402;48.082;11.628;2023-11-18T09:31:47;96226.25;;;6.80;100.00
72409;BME280;60402;48.082;11.628;2023-11-18T09:34:40;96212.88;;;7.52;100.00
72409;BME280;60402;48.082;11.628;2023-11-18T09:37:25;96181.25;;;8.10;100.00
72409;BME280;60402;48.082;11.628;2023-11-18T09:40:16;96200.56;;;8.71;99.29
72409;BME280;60402;48.082;11.628;2023-11-18T09:43:03;96210.84;;;8.92;95.55
72409;BME280;60402;48.082;11.628;2023-11-18T09:45:56;96206.38;;;8.98;91.24
72409;BME280;60402;48.082;11.628;2023-11-18T09:48:44;96129.78;;;8.10;94.57
72409;BME280;60402;48.082;11.628;2023-11-18T09:51:38;96187.34;;;8.61;93.67
72409;BME280;60402;48.082;11.628;2023-11-18T09:54:30;96182.31;;;8.34;93.90
72409;BME280;60402;48.082;11.628;2023-11-18T09:57:32;96205.63;;;8.35;96.52
72409;BME280;60402;48.082;11.628;2023-11-18T10:00:20;96198.03;;;8.28;96.24
72409;BME280;60402;48.082;11.628;2023-11-18T10:03:06;96196.94;;;8.08;95.17
72409;BME280;60402;48.082;11.628;2023-11-18T10:05:53;96208.59;;;8.10;96.76
72409;BME280;60402;48.082;11.628;2023-11-18T10:08:40;96185.22;;;8.24;96.90
72409;BME280;60402;48.082;11.628;2023-11-18T10:11:31;96217.00;;;8.20;96.94
72409;BME280;60402;48.082;11.628;2023-11-18T10:14:26;96174.84;;;8.06;94.34
72409;BME280;60402;48.082;11.628;2023-11-18T10:17:12;96112.66;;;7.86;93.93
72409;BME280;60402;48.082;11.628;2023-11-18T10:20:00;96173.88;;;8.38;92.91
72409;BME280;60402;48.082;11.628;2023-11-18T10:22:45;96181.88;;;8.36;92.92
72409;BME280;60402;48.082;11.628;2023-11-18T10:25:35;96159.25;;;8.54;94.17
72409;BME280;60402;48.082;11.628;2023-11-18T10:31:18;96134.00;;;8.36;89.21
72409;BME280;60402;48.082;11.628;2023-11-18T10:34:07;96173.34;;;8.50;90.42
72409;BME280;60402;48.082;11.628;2023-11-18T10:37:01;96161.25;;;8.57;87.16
72409;BME280;60402;48.082;11.628;2023-11-18T10:39:51;96172.84;;;8.66;88.22
72409;BME280;60402;48.082;11.628;2023-11-18T10:42:37;96160.16;;;8.40;89.29
72409;BME280;60402;48.082;11.628;2023-11-18T10:45:24;96150.00;;;8.53;89.39
72409;BME280;60402;48.082;11.628;2023-11-18T10:48:13;96124.84;;;8.28;88.25
72409;BME280;60402;48.082;11.628;2023-11-18T10:51:01;96166.09;;;8.56;86.34
72409;BME280;60402;48.082;11.628;2023-11-18T10:53:50;96179.00;;;8.47;88.60
72409;BME280;60402;48.082;11.628;2023-11-18T10:56:48;96183.47;;;8.44;88.00
72409;BME280;60402;48.082;11.628;2023-11-18T10:59:34;96173.31;;;8.57;88.81
72409;BME280;60402;48.082;11.628;2023-11-18T11:02:20;96159.00;;;8.30;86.45
72409;BME280;60402;48.082;11.628;2023-11-18T11:05:09;96174.91;;;8.58;83.43
72409;BME280;60402;48.082;11.628;2023-11-18T11:08:02;96176.59;;;8.52;82.51
72409;BME280;60402;48.082;11.628;2023-11-18T11:10:51;96167.81;;;8.39;85.62
72409;BME280;60402;48.082;11.628;2023-11-18T11:13:38;96165.84;;;8.29;86.49
72409;BME280;60402;48.082;11.628;2023-11-18T11:16:33;96179.50;;;8.31;85.45
72409;BME280;60402;48.082;11.628;2023-11-18T11:19:34;96184.00;;;8.17;85.94
72409;BME280;60402;48.082;11.628;2023-11-18T11:22:38;96177.22;;;8.11;85.63
72409;BME280;60402;48.082;11.628;2023-11-18T11:25:50;96184.88;;;8.07;85.48
72409;BME280;60402;48.082;11.628;2023-11-18T11:28:52;96156.81;;;7.93;85.44
72409;BME280;60402;48.082;11.628;2023-11-18T11:31:41;96190.50;;;8.14;85.07
72409;BME280;60402;48.082;11.628;2023-11-18T11:34:28;96158.03;;;7.96;83.08
72409;BME280;60402;48.082;11.628;2023-11-18T11:37:15;96181.34;;;7.96;86.65
72409;BME280;60402;48.082;11.628;2023-11-18T11:40:02;96188.22;;;7.88;86.19
72409;BME280;60402;48.082;11.628;2023-11-18T11:42:54;96175.00;;;7.78;86.35
72409;BME280;60402;48.082;11.628;2023-11-18T11:45:40;96111.19;;;7.57;83.07
72409;BME280;60402;48.082;11.628;2023-11-18T11:48:29;96157.28;;;7.84;84.73
72409;BME280;60402;48.082;11.628;2023-11-18T11:51:27;96164.09;;;7.90;84.92
72409;BME280;60402;48.082;11.628;2023-11-18T11:54:21;96133.41;;;8.10;83.19
72409;BME280;60402;48.082;11.628;2023-11-18T11:57:09;96164.28;;;8.25;83.60
72409;BME280;60402;48.082;11.628;2023-11-18T12:00:03;96125.06;;;7.92;83.16
72409;BME280;60402;48.082;11.628;2023-11-18T12:03:01;96145.03;;;8.16;81.58
72409;BME280;60402;48.082;11.628;2023-11-18T12:05:54;96146.59;;;8.20;81.93
72409;BME280;60402;48.082;11.628;2023-11-18T12:08:42;96123.75;;;8.11;80.34
72409;BME280;60402;48.082;11.628;2023-11-18T12:11:32;96140.19;;;8.20;81.48
72409;BME280;60402;48.082;11.628;2023-11-18T12:14:19;96130.50;;;8.25;82.08
72409;BME280;60402;48.082;11.628;2023-11-18T12:17:07;96142.47;;;8.39;82.13
72409;BME280;60402;48.082;11.628;2023-11-18T12:19:54;96150.50;;;8.41;81.64
72409;BME280;60402;48.082;11.628;2023-11-18T12:23:05;96151.00;;;8.25;82.32
72409;BME280;60402;48.082;11.628;2023-11-18T12:26:00;96129.44;;;8.01;80.26
72409;BME280;60402;48.082;11.628;2023-11-18T12:28:48;96126.25;;;7.95;79.97
72409;BME280;60402;48.082;11.628;2023-11-18T12:31:40;96130.22;;;8.05;80.01
72409;BME280;60402;48.082;11.628;2023-11-18T12:34:49;96129.41;;;8.04;80.69
72409;BME280;60402;48.082;11.628;2023-11-18T12:40:53;96118.81;;;8.23;78.51
72409;BME280;60402;48.082;11.628;2023-11-18T12:43:49;96101.69;;;7.99;80.06
72409;BME280;60402;48.082;11.628;2023-11-18T12:46:52;96115.66;;;8.13;80.35
72409;BME280;60402;48.082;11.628;2023-11-18T12:49:38;96108.53;;;8.02;80.01
72409;BME280;60402;48.082;11.628;2023-11-18T12:52:27;96078.03;;;7.89;76.19
72409;BME280;60402;48.082;11.628;2023-11-18T12:55:13;96090.78;;;8.08;77.73
72409;BME280;60402;48.082;11.628;2023-11-18T12:58:04;96085.22;;;7.98;77.86
72409;BME280;60402;48.082;11.628;2023-11-18T13:00:51;96092.75;;;8.15;76.28
72409;BME280;60402;48.082;11.628;2023-11-18T13:03:36;96078.00;;;7.97;77.69
72409;BME280;60402;48.082;11.628;2023-11-18T13:06:23;96103.72;;;7.95;78.89
72409;BME280;60402;48.082;11.628;2023-11-18T13:09:14;96058.50;;;7.72;79.19
72409;BME280;60402;48.082;11.628;2023-11-18T13:12:10;96079.19;;;7.99;78.84
72409;BME280;60402;48.082;11.628;2023-11-18T13:15:00;96063.97;;;7.93;80.25
72409;BME280;60402;48.082;11.628;2023-11-18T13:18:01;96078.75;;;8.04;78.23
72409;BME280;60402;48.082;11.628;2023-11-18T13:20:58;96080.06;;;7.89;80.02
72409;BME280;60402;48.082;11.628;2023-11-18T13:23:48;96072.09;;;7.80;81.25
72409;BME280;60402;48.082;11.628;2023-11-18T13:26:35;96030.03;;;7.59;81.74
72409;BME280;60402;48.082;11.628;2023-11-18T13:29:21;96067.16;;;7.95;81.40
72409;BME280;60402;48.082;11.628;2023-11-18T13:32:11;96067.31;;;7.70;81.32
72409;BME280;60402;48.082;11.628;2023-11-18T13:34:57;96057.38;;;7.58;81.88
72409;BME280;60402;48.082;11.628;2023-11-18T13:37:46;96050.16;;;7.54;83.40
72409;BME280;60402;48.082;11.628;2023-11-18T13:40:45;96058.25;;;7.48;84.92
72409;BME280;60402;48.082;11.628;2023-11-18T13:43:45;96069.81;;;7.57;85.77
72409;BME280;60402;48.082;11.628;2023-11-18T13:46:32;96040.25;;;7.31;84.68
72409;BME280;60402;48.082;11.628;2023-11-18T13:49:20;96046.63;;;7.39;85.56
72409;BME280;60402;48.082;11.628;2023-11-18T13:52:09;96021.81;;;7.20;87.17
72409;BME280;60402;48.082;11.628;2023-11-18T13:54:56;96014.59;;;7.18;87.67
72409;BME280;60402;48.082;11.628;2023-11-18T13:57:43;96039.00;;;7.39;85.25
72409;BME280;60402;48.082;11.628;2023-11-18T14:00:29;96023.09;;;7.04;87.17
72409;BME280;60402;48.082;11.628;2023-11-18T14:03:15;96045.50;;;7.22;88.07
72409;BME280;60402;48.082;11.628;2023-11-18T14:06:01;96055.94;;;7.22;88.74
72409;BME280;60402;48.082;11.628;2023-11-18T14:08:47;95991.03;;;6.91;89.76
72409;BME280;60402;48.082;11.628;2023-11-18T14:11:33;96033.88;;;7.20;90.31
72409;BME280;60402;48.082;11.628;2023-11-18T14:14:19;96016.59;;;7.22;89.37
72409;BME280;60402;48.082;11.628;2023-11-18T14:17:06;96028.25;;;7.20;90.39
72409;BME280;60402;48.082;11.628;2023-11-18T14:19:52;96018.22;;;7.19;89.92
72409;BME280;60402;48.082;11.628;2023-11-18T14:22:38;96023.81;;;7.26;87.35
72409;BME280;60402;48.082;11.628;2023-11-18T14:25:25;96013.81;;;7.14;89.69
72409;BME280;60402;48.082;11.628;2023-11-18T14:28:12;96018.63;;;7.14;89.20
72409;BME280;60402;48.082;11.628;2023-11-18T14:30:58;96027.03;;;7.21;90.13
72409;BME280;60402;48.082;11.628;2023-11-18T14:33:44;96009.41;;;7.10;89.60
72409;BME280;60402;48.082;11.628;2023-11-18T14:36:30;96021.44;;;7.17;89.42
72409;BME280;60402;48.082;11.628;2023-11-18T14:39:16;96008.25;;;7.04;90.11
72409;BME280;60402;48.082;11.628;2023-11-18T14:42:03;96015.47;;;7.05;89.79
72409;BME280;60402;48.082;11.628;2023-11-18T14:44:49;96011.50;;;6.91;90.74
72409;BME280;60402;48.082;11.628;2023-11-18T14:47:35;95995.91;;;6.87;89.89